Terminal Aerodrome Forecast
Issued by NWS

Home | Current Version | Previous Version | Text Only | Print | Product List | Glossary On
Versions: 1 2 3 4 5 6 7 8 9 10 11 12 13 14 15 16 17 18 19 20
000
FTUS46 KLOX 122300
TAFLGB
TAF
KLGB 122334Z 1300/1324 30010KT P6SM BKN200
     FM130500 VRB03KT P6SM SCT200
     FM131100 VRB03KT 4SM BR BKN008
     FM131500 VRB03KT 5SM HZ FEW009 SCT200
     FM131700 19007KT P6SM SCT200
     FM132300 29009KT P6SM SCT200=

USA.gov is the U.S. government's official web portal to all federal, state and local government web resources and services.